De Smet, South Dakota
Current Conditions -  °F | °C
As of 11:55 PM on Wednesday 26 Nov 2014 (Local Time) from KHON Reporting Station
Clear Clear  
Wind Chill: -13°   Ceiling: Unl
Heat Index:   Visibility: 10mi
Dew Point: -6°   Wind: 7mph
Humidity: 76%   Direction: 10°N
Pressure: 30.51"   Gusts: NA
Location:  44.39°N, 97.55°W
Report Text: KHON 270555Z AUTO 01006KT 10SM CLR M18/M21 A3051 RMK AO2 SLP365 T11781211 11122 21178 400001178 51010
Loading
Personal Weather Stations






























Interactive Weather Map New forecast layout! Learn more

10-Day Weather Forecast

Advertisements
Track Severe Weather on mobile